Aviation Digital Data Service (ADDS)

Output produced by METARs form (1638 UTC 22 June 2017)
found at http://aviationweather.gov/adds/metars/
 
KEWR 221531Z 2216/2318 16007KT P6SM SCT250 
     FM221900 14010G15KT P6SM SCT050 BKN250 
     FM222300 20008KT P6SM BKN250 
     FM230800 20005KT 6SM BR VCSH FEW015 SCT050 BKN150 
     FM231500 22012KT 6SM HZ VCSH SCT030 SCT050 BKN150